Sewanee, Tennessee
Current Conditions -  °F | °C
As of 11:55 AM on Monday 24 Nov 2014 (Local Time) from KBGF Reporting Station
Few Clouds Few Clouds  
Wind Chill: 64°   Ceiling: Unl
Heat Index: 64°   Visibility: 10mi
Dew Point: 45°   Wind: 15mph
Humidity: 49%   Direction: 240°WSW
Pressure: 29.78"   Gusts: NA
Location:  35.19°N, 85.92°W
Report Text: KBGF 241755Z AUTO 24013KT 10SM FEW046 18/07 A2978 RMK
Loading
Personal Weather Stations






























Interactive Weather Map New forecast layout! Learn more

10-Day Weather Forecast

Advertisements
Track Severe Weather on mobile